Time;durP1;ratioP1;P1;durP2;ratioP2;P2;SDS_P1;SDS_P2;PMS_P1;PMS_P2;Temp;Humidity;BMP_temperature;BMP_pressure;BME280_temperature;BME280_humidity;BME280_pressure;Samples;Min_cycle;Max_cycle;Signal;HPM_P1;HPM_P2
2024/02/13 00:03:52;;;;;;;12.93;4.35;;;12.50;99.90;;;;;;10621586;27;20059;-63
2024/02/13 00:08:54;;;;;;;16.77;5.93;;;12.60;99.90;;;;;;10620912;27;20047;-61
2024/02/13 00:13:58;;;;;;;9.48;3.90;;;12.70;99.90;;;;;;10627471;27;20065;-62
2024/02/13 00:19:01;;;;;;;7.68;4.35;;;12.40;99.90;;;;;;10622253;27;20354;-62
2024/02/13 00:24:04;;;;;;;10.82;4.57;;;12.50;99.90;;;;;;10625624;27;20051;-62
2024/02/13 00:29:07;;;;;;;15.68;4.53;;;12.20;99.90;;;;;;10628348;27;20462;-62
2024/02/13 00:34:09;;;;;;;9.95;4.35;;;12.60;99.90;;;;;;10638066;27;20055;-60
2024/02/13 00:39:11;;;;;;;10.48;4.35;;;13.10;99.90;;;;;;10631117;27;20055;-61
2024/02/13 00:44:14;;;;;;;8.07;4.23;;;13.50;99.90;;;;;;10634727;27;20051;-62
2024/02/13 00:49:16;;;;;;;6.80;4.30;;;13.50;99.90;;;;;;10635939;27;20062;-62
2024/02/13 00:54:18;;;;;;;9.30;4.73;;;13.80;99.90;;;;;;10634819;27;20081;-62
2024/02/13 00:59:23;;;;;;;17.63;5.43;;;14.00;99.90;;;;;;10637180;27;20047;-61
2024/02/13 01:04:25;;;;;;;10.25;3.83;;;13.70;99.90;;;;;;10636557;27;22297;-62
2024/02/13 01:09:26;;;;;;;9.57;3.90;;;13.20;99.90;;;;;;10637020;27;20050;-62
2024/02/13 01:14:30;;;;;;;18.48;5.15;;;12.80;99.90;;;;;;10638390;27;20680;-62
2024/02/13 01:19:32;;;;;;;7.15;3.83;;;11.70;99.90;;;;;;10637425;27;20054;-62
2024/02/13 01:24:35;;;;;;;8.80;4.43;;;11.80;99.90;;;;;;10634999;27;20054;-62
2024/02/13 01:29:38;;;;;;;;;;;11.10;99.90;;;;;;10633505;27;20039;-61
2024/02/13 01:34:42;;;;;;;12.65;4.05;;;12.20;99.90;;;;;;10636202;27;19919;-61
2024/02/13 01:39:44;;;;;;;12.70;3.28;;;11.40;99.90;;;;;;10635067;27;20053;-62
2024/02/13 01:44:47;;;;;;;6.70;2.80;;;12.50;99.90;;;;;;10628411;27;20062;-61
2024/02/13 01:49:50;;;;;;;9.25;3.45;;;12.30;99.90;;;;;;10633808;27;20057;-61
2024/02/13 01:54:52;;;;;;;5.53;2.80;;;12.40;99.90;;;;;;10633177;27;20593;-61
2024/02/13 01:59:55;;;;;;;7.60;3.40;;;13.40;99.90;;;;;;10631923;27;20747;-62
2024/02/13 02:04:58;;;;;;;9.52;2.70;;;13.20;99.90;;;;;;10633608;27;20492;-61
2024/02/13 02:10:00;;;;;;;7.57;3.35;;;13.30;99.90;;;;;;10630388;27;20742;-61
2024/02/13 02:15:04;;;;;;;10.20;3.23;;;13.80;99.90;;;;;;10630847;27;20058;-61
2024/02/13 02:20:08;;;;;;;7.97;2.42;;;13.40;99.90;;;;;;10636096;27;20070;-63
2024/02/13 02:25:13;;;;;;;9.75;3.03;;;12.70;99.90;;;;;;10627389;27;20062;-61
2024/02/13 02:30:15;;;;;;;9.52;2.88;;;12.70;99.90;;;;;;10625685;27;20051;-62
2024/02/13 02:35:17;;;;;;;6.70;2.70;;;13.30;99.90;;;;;;10630241;27;20101;-61
2024/02/13 02:40:21;;;;;;;9.68;2.75;;;12.70;99.90;;;;;;10625640;27;20046;-61
2024/02/13 02:45:23;;;;;;;12.73;3.25;;;12.20;99.90;;;;;;10626258;27;20050;-61
2024/02/13 02:50:26;;;;;;;14.13;3.13;;;10.70;99.90;;;;;;10623997;27;20130;-60
2024/02/13 02:55:30;;;;;;;12.75;3.15;;;10.90;99.90;;;;;;10627952;27;20050;-61
2024/02/13 03:00:33;;;;;;;9.82;2.85;;;11.00;99.90;;;;;;10629078;27;20054;-61
2024/02/13 03:05:36;;;;;;;12.82;3.08;;;11.50;99.90;;;;;;10630303;27;20812;-61
2024/02/13 03:10:40;;;;;;;9.27;3.63;;;11.90;99.90;;;;;;10624065;27;20941;-61
2024/02/13 03:15:44;;;;;;;7.80;2.67;;;12.00;99.90;;;;;;10624244;27;20122;-61
2024/02/13 03:20:47;;;;;;;7.85;2.80;;;13.00;99.90;;;;;;10627217;27;22875;-61
2024/02/13 03:25:50;;;;;;;10.00;3.55;;;12.10;99.90;;;;;;10623300;27;20046;-60
2024/02/13 03:30:54;;;;;;;14.23;3.13;;;10.90;99.90;;;;;;10615541;27;20593;-61
2024/02/13 03:35:55;;;;;;;10.02;3.75;;;10.80;99.90;;;;;;10626650;27;20177;-61
2024/02/13 03:41:02;;;;;;;12.98;3.10;;;10.20;99.90;;;;;;10629064;27;20489;-61
2024/02/13 03:46:04;;;;;;;18.85;3.88;;;10.80;99.90;;;;;;10618048;27;20046;-62
2024/02/13 03:51:06;;;;;;;10.93;3.28;;;9.50;99.90;;;;;;10618869;27;20047;-60
2024/02/13 03:56:09;;;;;;;14.07;3.55;;;11.50;99.90;;;;;;10624744;27;20536;-61
2024/02/13 04:15:33;;;;;;;18.88;4.93;;;12.50;99.90;;;;;;10480062;27;21321;-61
2024/02/13 04:20:37;;;;;;;12.57;3.75;;;11.20;99.90;;;;;;10506028;28;20051;-61
2024/02/13 04:25:39;;;;;;;17.10;4.15;;;10.50;99.90;;;;;;10499928;28;20048;-61
2024/02/13 04:30:43;;;;;;;16.67;5.00;;;10.00;99.90;;;;;;10498841;28;20118;-62
2024/02/13 04:35:45;;;;;;;17.95;3.78;;;9.50;99.90;;;;;;10497502;28;20056;-60
2024/02/13 04:40:47;;;;;;;10.20;3.70;;;11.20;99.90;;;;;;10507660;28;20079;-61
2024/02/13 04:45:50;;;;;;;9.77;3.10;;;11.50;99.90;;;;;;10503371;28;20055;-61
2024/02/13 04:50:52;;;;;;;10.40;4.30;;;11.40;99.90;;;;;;10502491;28;20233;-62
2024/02/13 04:55:59;;;;;;;6.93;3.00;;;12.40;99.90;;;;;;10502299;28;20064;-62
2024/02/13 05:01:05;;;;;;;15.18;3.38;;;12.90;99.90;;;;;;10498352;28;20052;-61
2024/02/13 05:11:30;;;;;;;11.73;2.20;;;13.00;99.90;;;;;;10489263;28;20049;-62
2024/02/13 05:16:33;;;;;;;16.92;3.30;;;13.20;99.90;;;;;;10459730;28;20041;-58
2024/02/13 05:21:36;;;;;;;8.00;2.83;;;13.00;99.90;;;;;;10454501;28;20863;-61
2024/02/13 05:26:38;;;;;;;13.63;2.92;;;12.30;99.90;;;;;;10428675;28;20053;-61
2024/02/13 05:31:42;;;;;;;10.77;2.53;;;12.60;99.90;;;;;;10422459;28;20474;-61
2024/02/13 05:36:44;;;;;;;10.00;2.22;;;13.30;99.90;;;;;;10424010;28;20503;-61
2024/02/13 05:41:46;;;;;;;8.37;2.33;;;13.20;99.90;;;;;;10428427;28;20426;-62
2024/02/13 05:46:50;;;;;;;14.07;3.07;;;12.70;99.90;;;;;;10420292;28;20049;-61
2024/02/13 05:51:53;;;;;;;7.90;2.38;;;11.90;99.90;;;;;;10427184;28;20041;-62
2024/02/13 05:56:55;;;;;;;6.15;2.05;;;12.30;99.90;;;;;;10421580;28;20079;-61
2024/02/13 06:01:59;;;;;;;5.90;2.10;;;11.10;99.90;;;;;;10429647;28;20037;-61
2024/02/13 06:07:02;;;;;;;15.95;2.33;;;11.40;99.90;;;;;;10420778;28;20428;-61
2024/02/13 06:12:06;;;;;;;16.63;2.90;;;10.30;99.90;;;;;;10427998;28;20056;-62
2024/02/13 06:17:10;;;;;;;11.60;3.13;;;10.10;99.90;;;;;;10413836;28;20088;-62
2024/02/13 06:22:12;;;;;;;6.00;1.95;;;9.80;99.90;;;;;;10427064;28;20070;-61
2024/02/13 06:27:14;;;;;;;8.07;2.78;;;11.30;99.90;;;;;;10424639;28;20053;-62
2024/02/13 06:32:17;;;;;;;9.00;2.77;;;11.60;99.90;;;;;;10421248;28;20045;-62
2024/02/13 06:37:19;;;;;;;9.32;3.35;;;11.60;99.90;;;;;;10424348;28;20061;-61
2024/02/13 06:42:22;;;;;;;8.70;2.67;;;11.80;99.90;;;;;;10427282;28;20053;-62
2024/02/13 06:47:25;;;;;;;7.30;2.77;;;12.90;99.90;;;;;;10415896;28;20779;-60
2024/02/13 06:52:28;;;;;;;8.43;1.90;;;12.50;99.90;;;;;;10425094;28;20041;-62
2024/02/13 06:57:32;;;;;;;11.07;3.73;;;11.70;99.90;;;;;;10429087;28;20045;-61
2024/02/13 07:02:36;;;;;;;13.55;2.65;;;11.90;99.90;;;;;;10431953;28;20980;-61
2024/02/13 07:07:38;;;;;;;11.35;2.95;;;11.30;99.90;;;;;;10423707;28;20049;-61
2024/02/13 07:12:40;;;;;;;11.95;3.03;;;9.20;99.90;;;;;;10425363;28;20053;-60
2024/02/13 07:17:44;;;;;;;12.98;3.17;;;8.70;99.90;;;;;;10414987;28;20057;-60
2024/02/13 07:22:47;;;;;;;10.90;4.93;;;9.10;99.90;;;;;;10415496;28;20059;-59
2024/02/13 07:27:50;;;;;;;11.35;2.80;;;9.10;99.90;;;;;;10420872;28;20060;-61
2024/02/13 07:32:53;;;;;;;10.38;2.90;;;9.00;99.90;;;;;;10413977;28;20064;-61
2024/02/13 07:37:55;;;;;;;13.07;2.53;;;9.00;99.90;;;;;;10415656;28;20050;-61
2024/02/13 07:42:57;;;;;;;9.90;2.53;;;9.40;99.90;;;;;;10419121;28;20093;-62
2024/02/13 07:48:04;;;;;;;12.27;2.65;;;9.80;99.90;;;;;;10416087;28;20896;-61
2024/02/13 07:53:07;;;;;;;8.88;3.25;;;10.60;99.90;;;;;;10411818;28;20061;-62
2024/02/13 07:58:09;;;;;;;10.40;2.70;;;8.80;99.90;;;;;;10413687;28;20514;-62
2024/02/13 08:03:12;;;;;;;7.55;3.08;;;9.90;99.90;;;;;;10418427;28;20135;-62
2024/02/13 08:08:14;;;;;;;7.30;1.58;;;9.50;99.90;;;;;;10410209;28;20228;-61
2024/02/13 08:13:16;;;;;;;6.82;2.90;;;9.40;99.90;;;;;;10433907;28;20052;-61
2024/02/13 08:18:20;;;;;;;5.27;2.17;;;9.30;99.90;;;;;;10448703;28;20048;-60
2024/02/13 08:23:22;;;;;;;13.32;2.92;;;8.80;99.90;;;;;;10469151;28;20490;-62
2024/02/13 08:28:24;;;;;;;7.30;2.58;;;8.50;99.90;;;;;;10452910;28;20043;-61
2024/02/13 08:33:27;;;;;;;7.38;2.97;;;9.20;99.90;;;;;;10460650;28;21454;-61
2024/02/13 08:38:29;;;;;;;;;;;9.00;99.90;;;;;;10463694;28;20079;-62
2024/02/13 08:43:32;;;;;;;6.28;2.63;;;8.70;99.90;;;;;;10459093;28;19928;-62
2024/02/13 08:48:37;;;;;;;;;;;9.60;99.90;;;;;;10456666;28;20167;-62
2024/02/13 08:53:39;;;;;;;9.95;2.58;;;9.40;99.90;;;;;;10454710;28;19921;-62
2024/02/13 08:58:42;;;;;;;18.07;2.80;;;8.90;99.90;;;;;;10465858;28;20571;-62
2024/02/13 09:03:46;;;;;;;7.72;2.47;;;9.30;99.90;;;;;;10465096;28;20087;-62
2024/02/13 09:08:48;;;;;;;5.57;2.80;;;9.90;99.90;;;;;;10464879;28;20040;-61
2024/02/13 09:13:51;;;;;;;9.27;2.63;;;8.50;99.90;;;;;;10442850;28;20045;-62
2024/02/13 09:18:55;;;;;;;6.50;2.95;;;9.30;99.90;;;;;;10422247;28;20048;-62
2024/02/13 09:23:57;;;;;;;4.47;2.42;;;9.30;99.90;;;;;;10423621;28;20748;-62
2024/02/13 09:29:01;;;;;;;8.02;2.42;;;9.30;99.90;;;;;;10418402;28;20504;-62
2024/02/13 09:34:06;;;;;;;27.02;2.20;;;9.40;99.90;;;;;;10424856;28;20048;-62
2024/02/13 09:39:11;;;;;;;9.95;2.97;;;9.90;99.90;;;;;;10410883;28;20083;-62
2024/02/13 09:44:14;;;;;;;10.95;2.70;;;9.20;99.90;;;;;;10423324;28;20175;-62
2024/02/13 09:49:18;;;;;;;10.07;2.83;;;8.70;99.90;;;;;;10414279;28;20049;-62
2024/02/13 09:54:24;;;;;;;6.40;2.45;;;9.40;99.90;;;;;;10417989;28;20123;-61
2024/02/13 09:59:27;;;;;;;6.22;2.47;;;9.00;99.90;;;;;;10409923;28;20059;-61
2024/02/13 10:04:30;;;;;;;8.13;2.37;;;9.40;99.90;;;;;;10418075;28;20134;-61
2024/02/13 10:09:33;;;;;;;5.93;1.50;;;9.70;99.90;;;;;;10417772;28;20049;-61
2024/02/13 10:14:36;;;;;;;6.05;2.22;;;10.50;99.90;;;;;;10445235;28;20056;-61
2024/02/13 10:19:39;;;;;;;6.15;1.77;;;10.60;99.90;;;;;;10449766;28;20689;-62
2024/02/13 10:24:46;;;;;;;10.40;1.30;;;10.10;99.90;;;;;;10442419;28;20687;-63
2024/02/13 10:29:49;;;;;;;5.72;1.65;;;10.50;99.90;;;;;;10463263;28;20049;-60
2024/02/13 10:34:52;;;;;;;6.03;2.83;;;10.60;99.90;;;;;;10462360;28;20086;-60
2024/02/13 10:39:56;;;;;;;5.38;1.58;;;10.40;99.90;;;;;;10467098;28;20044;-60
2024/02/13 10:45:05;;;;;;;10.65;1.67;;;10.70;99.90;;;;;;10456996;28;20061;-62
2024/02/13 10:50:10;;;;;;;5.70;1.83;;;10.50;99.90;;;;;;10449281;28;20049;-61
2024/02/13 10:55:13;;;;;;;4.13;1.33;;;10.60;99.90;;;;;;10435178;28;20044;-61
2024/02/13 11:00:19;;;;;;;6.63;1.00;;;10.30;99.90;;;;;;10453705;28;20487;-61
2024/02/13 11:05:25;;;;;;;3.22;1.27;;;10.20;99.90;;;;;;10448731;28;20040;-62
2024/02/13 11:10:34;;;;;;;1.35;0.80;;;10.50;99.90;;;;;;10454382;28;20053;-62
2024/02/13 11:15:39;;;;;;;5.22;1.67;;;10.70;99.90;;;;;;10407103;28;20083;-61
2024/02/13 11:20:43;;;;;;;7.07;1.77;;;10.40;99.90;;;;;;10403824;28;20172;-61
2024/02/13 11:25:58;;;;;;;2.00;1.73;;;10.60;99.90;;;;;;10411299;28;20503;-60
2024/02/13 11:31:00;;;;;;;8.82;2.40;;;11.00;99.90;;;;;;10404417;28;20133;-61
2024/02/13 11:36:05;;;;;;;9.52;2.47;;;10.70;99.90;;;;;;10407211;28;20258;-62
2024/02/13 11:41:17;;;;;;;6.47;2.15;;;11.50;99.90;;;;;;10406468;28;20151;-62
2024/02/13 11:46:20;;;;;;;7.97;2.90;;;11.20;99.90;;;;;;10412187;28;20045;-62
2024/02/13 11:51:24;;;;;;;6.18;2.20;;;11.90;99.90;;;;;;10409794;28;20129;-62
2024/02/13 11:56:26;;;;;;;4.72;0.98;;;10.80;99.90;;;;;;10409529;28;20045;-61
2024/02/13 12:01:28;;;;;;;6.50;1.90;;;11.60;99.90;;;;;;10407497;28;20451;-61
2024/02/13 12:06:31;;;;;;;5.67;1.67;;;12.90;99.90;;;;;;10410229;28;20045;-61
2024/02/13 12:11:35;;;;;;;9.48;2.40;;;13.10;99.90;;;;;;10417611;28;20072;-61
2024/02/13 12:16:38;;;;;;;4.50;2.55;;;13.00;99.90;;;;;;10415709;28;20044;-61
2024/02/13 12:21:43;;;;;;;6.15;2.63;;;13.40;99.90;;;;;;10426159;28;20052;-61
2024/02/13 12:26:47;;;;;;;5.53;1.20;;;12.40;99.90;;;;;;10421830;28;20092;-61
2024/02/13 12:31:49;;;;;;;5.05;1.30;;;12.40;99.90;;;;;;10420569;28;20112;-57
2024/02/13 12:36:57;;;;;;;7.03;1.88;;;12.60;99.90;;;;;;10424465;28;20150;-58
2024/02/13 12:41:59;;;;;;;9.35;1.80;;;11.70;99.90;;;;;;10432919;28;20041;-60
2024/02/13 12:47:03;;;;;;;7.82;1.92;;;12.10;99.90;;;;;;10427021;28;20123;-59
2024/02/13 12:52:07;;;;;;;5.22;1.63;;;12.70;99.90;;;;;;10424474;28;20052;-58
2024/02/13 12:57:09;;;;;;;7.53;1.90;;;13.40;99.90;;;;;;10430919;28;20059;-59
2024/02/13 13:02:13;;;;;;;10.20;2.63;;;12.40;99.90;;;;;;10430071;28;20045;-59
2024/02/13 13:07:16;;;;;;;7.38;1.73;;;12.00;99.90;;;;;;10430608;28;20052;-59
2024/02/13 13:12:19;;;;;;;3.13;1.63;;;12.80;99.90;;;;;;10442263;28;20060;-60
2024/02/13 13:17:22;;;;;;;5.35;1.80;;;12.70;99.90;;;;;;10452265;28;20087;-60
2024/02/13 13:22:26;;;;;;;5.35;1.50;;;12.50;99.90;;;;;;10459023;28;20105;-59
2024/02/13 13:27:28;;;;;;;5.55;1.73;;;12.30;99.90;;;;;;10464373;28;20044;-60
2024/02/13 13:32:31;;;;;;;10.80;1.88;;;12.10;99.90;;;;;;10460243;28;20140;-58
2024/02/13 13:37:36;;;;;;;6.18;2.17;;;12.30;99.90;;;;;;10465374;28;20059;-61
2024/02/13 13:42:43;;;;;;;5.25;2.08;;;12.20;99.90;;;;;;10459197;28;20044;-61
2024/02/13 13:47:45;;;;;;;4.53;1.23;;;12.00;99.90;;;;;;10463185;28;20109;-61
2024/02/13 13:52:49;;;;;;;7.07;1.98;;;13.30;99.90;;;;;;10465507;28;20082;-60
2024/02/13 13:57:51;;;;;;;8.00;2.60;;;13.20;99.90;;;;;;10461907;28;20440;-61
2024/02/13 14:02:53;;;;;;;6.57;1.80;;;13.90;99.90;;;;;;10461642;28;20094;-61
2024/02/13 14:07:56;;;;;;;8.67;2.17;;;14.30;99.90;;;;;;10459994;28;20861;-61
2024/02/13 14:12:59;;;;;;;3.80;2.20;;;14.00;99.90;;;;;;10441360;28;20855;-61
2024/02/13 14:18:04;;;;;;;2.50;1.92;;;14.40;99.90;;;;;;10427497;28;20439;-61
2024/02/13 14:23:07;;;;;;;6.25;1.92;;;14.40;99.90;;;;;;10424214;28;20044;-61
2024/02/13 14:28:12;;;;;;;9.30;2.22;;;14.10;99.90;;;;;;10421095;28;20837;-61
2024/02/13 14:33:15;;;;;;;5.03;1.92;;;13.90;99.90;;;;;;10421555;28;20218;-59
2024/02/13 14:38:18;;;;;;;7.55;2.17;;;14.50;99.90;;;;;;10418757;28;20053;-60
2024/02/13 14:43:20;;;;;;;10.88;2.30;;;15.20;99.90;;;;;;10425436;28;20553;-62
2024/02/13 14:48:22;;;;;;;6.10;2.43;;;14.60;99.90;;;;;;10430470;28;20084;-62
2024/02/13 14:53:31;;;;;;;6.70;1.57;;;14.50;99.90;;;;;;10414185;28;20077;-62
2024/02/13 14:58:33;;;;;;;7.85;2.17;;;14.50;99.90;;;;;;10411344;28;20068;-62
2024/02/13 15:03:35;;;;;;;9.37;2.40;;;14.10;99.90;;;;;;10419443;28;20134;-62
2024/02/13 15:08:39;;;;;;;8.27;2.60;;;13.20;99.90;;;;;;10404874;28;20107;-61
2024/02/13 15:13:42;;;;;;;8.30;2.05;;;12.80;99.90;;;;;;10440386;28;20496;-61
2024/02/13 15:18:44;;;;;;;9.30;1.17;;;12.10;99.90;;;;;;10460919;28;20163;-61
2024/02/13 15:23:48;;;;;;;8.10;2.38;;;12.40;99.90;;;;;;10452068;28;20052;-61
2024/02/13 15:28:50;;;;;;;20.55;2.45;;;12.30;99.90;;;;;;10446478;28;20083;-61
2024/02/13 15:33:53;;;;;;;5.95;2.00;;;12.40;99.90;;;;;;10462472;28;20222;-60
2024/02/13 15:49:39;;;;;;;4.05;1.60;;;13.10;99.90;;;;;;10468231;28;20036;-60
2024/02/13 15:54:44;;;;;;;8.07;1.92;;;13.10;99.90;;;;;;10464152;28;20613;-60
2024/02/13 15:59:46;;;;;;;4.40;1.50;;;14.20;99.90;;;;;;10463112;28;20060;-60
2024/02/13 16:04:48;;;;;;;3.93;1.50;;;15.10;99.90;;;;;;10449837;28;20040;-60
2024/02/13 16:09:54;;;;;;;2.60;1.43;;;16.10;99.90;;;;;;10462255;28;20052;-59
2024/02/13 16:14:56;;;;;;;3.03;1.17;;;16.40;99.90;;;;;;10448772;28;20170;-60
2024/02/13 16:19:58;;;;;;;3.13;1.57;;;16.60;99.90;;;;;;10449677;28;20052;-61
2024/02/13 16:25:05;;;;;;;5.03;1.63;;;16.80;99.90;;;;;;10452274;28;20049;-61
2024/02/13 16:30:08;;;;;;;4.60;1.42;;;16.80;99.90;;;;;;10436747;28;20055;-60
2024/02/13 16:35:11;;;;;;;5.75;1.55;;;16.70;99.90;;;;;;10452880;28;20139;-61
2024/02/13 16:40:16;;;;;;;3.88;1.35;;;16.60;99.90;;;;;;10447546;28;20139;-62
2024/02/13 16:45:19;;;;;;;4.00;1.63;;;16.70;99.90;;;;;;10450316;28;20045;-60
2024/02/13 16:50:21;;;;;;;;;;;16.90;99.90;;;;;;10454274;28;20064;-60
2024/02/13 16:55:25;;;;;;;9.95;2.28;;;17.00;99.90;;;;;;10452584;28;19924;-59
2024/02/13 17:00:27;;;;;;;8.48;2.45;;;16.90;99.90;;;;;;10456174;28;20063;-61
2024/02/13 17:05:29;;;;;;;7.03;2.42;;;16.90;99.90;;;;;;10455075;28;20086;-60
2024/02/13 17:10:33;;;;;;;9.32;3.30;;;17.00;99.90;;;;;;10452025;28;20052;-58
2024/02/13 17:15:35;;;;;;;5.45;1.85;;;17.00;99.90;;;;;;10424995;28;20037;-59
2024/02/13 17:20:38;;;;;;;9.10;2.85;;;16.70;99.90;;;;;;10417294;28;20053;-59
2024/02/13 17:25:42;;;;;;;4.68;2.63;;;16.50;99.90;;;;;;10421664;28;20075;-60
2024/02/13 17:30:44;;;;;;;6.15;2.55;;;16.70;99.90;;;;;;10417722;28;20084;-61
2024/02/13 17:35:47;;;;;;;8.33;3.47;;;16.90;99.90;;;;;;10417741;28;20050;-60
2024/02/13 17:40:52;;;;;;;6.35;2.53;;;17.00;99.90;;;;;;10421973;28;20471;-63
2024/02/13 17:45:54;;;;;;;6.00;2.85;;;16.70;99.90;;;;;;10422971;28;20393;-61
2024/02/13 17:50:56;;;;;;;5.07;2.78;;;16.60;99.90;;;;;;10423277;28;20049;-61
2024/02/13 17:55:59;;;;;;;6.65;3.47;;;16.40;99.90;;;;;;10421230;28;20048;-61
2024/02/13 18:01:01;;;;;;;8.55;2.78;;;15.90;99.90;;;;;;10422469;28;20134;-61
2024/02/13 18:06:04;;;;;;;3.73;2.57;;;16.20;99.90;;;;;;10430645;28;20064;-61
2024/02/13 18:11:07;;;;;;;7.90;3.13;;;16.20;99.90;;;;;;10427410;28;20056;-60
2024/02/13 18:16:09;;;;;;;11.40;2.92;;;16.30;99.90;;;;;;10463673;28;20475;-59
2024/02/13 18:21:11;;;;;;;6.32;2.63;;;16.00;99.90;;;;;;10470274;28;20573;-60
2024/02/13 18:26:21;;;;;;;3.47;2.73;;;15.90;99.90;;;;;;10477970;28;20075;-59
2024/02/13 18:31:23;;;;;;;5.78;2.55;;;15.50;99.90;;;;;;10477233;28;20522;-61
2024/02/13 18:36:27;;;;;;;;;;;16.20;99.90;;;;;;10469865;28;20515;-59
2024/02/13 18:41:31;;;;;;;6.45;2.45;;;16.70;99.90;;;;;;10472835;28;20809;-60
2024/02/13 18:46:32;;;;;;;11.80;2.50;;;16.90;99.90;;;;;;10475387;28;20522;-59
2024/02/13 18:51:35;;;;;;;6.63;2.43;;;17.20;99.90;;;;;;10476713;28;20159;-60
2024/02/13 18:56:38;;;;;;;3.08;2.42;;;17.40;99.90;;;;;;10475909;28;20047;-60
2024/02/13 19:01:40;;;;;;;8.07;2.38;;;17.40;99.90;;;;;;10472451;28;20048;-61
2024/02/13 19:06:42;;;;;;;9.23;2.53;;;17.10;99.90;;;;;;10479034;28;20048;-61
2024/02/13 19:11:46;;;;;;;3.47;2.70;;;17.00;99.90;;;;;;10458657;28;20053;-60
2024/02/13 19:16:48;;;;;;;6.15;2.28;;;17.20;99.90;;;;;;10423562;28;20503;-61
2024/02/13 19:21:50;;;;;;;5.63;2.38;;;17.20;99.90;;;;;;10423524;28;20052;-62
2024/02/13 19:26:54;;;;;;;11.13;2.13;;;17.10;99.90;;;;;;10424860;28;20045;-61
2024/02/13 19:31:57;;;;;;;4.30;2.25;;;17.10;99.90;;;;;;10422382;28;20467;-62
2024/02/13 19:37:00;;;;;;;7.55;2.58;;;17.00;99.90;;;;;;10415195;28;20169;-60
2024/02/13 19:42:03;;;;;;;3.85;2.28;;;17.00;99.90;;;;;;10412721;28;20057;-62
2024/02/13 19:47:06;;;;;;;4.70;2.22;;;16.90;99.90;;;;;;10413905;28;20469;-61
2024/02/13 19:52:08;;;;;;;2.83;1.77;;;17.20;99.90;;;;;;10415958;28;20049;-61
2024/02/13 19:57:12;;;;;;;7.80;2.20;;;16.90;99.90;;;;;;10412819;28;20990;-62
2024/02/13 20:02:18;;;;;;;5.55;2.30;;;16.80;99.90;;;;;;10413931;28;20103;-59
2024/02/13 20:07:21;;;;;;;6.38;2.28;;;14.50;99.90;;;;;;10413315;28;20558;-62
2024/02/13 20:12:26;;;;;;;2.78;1.77;;;13.70;99.90;;;;;;10432933;28;20059;-62
2024/02/13 20:17:30;;;;;;;3.78;2.08;;;15.30;99.90;;;;;;10461082;28;20061;-60
2024/02/13 20:22:32;;;;;;;4.45;1.85;;;15.10;99.90;;;;;;10474384;28;20052;-59
2024/02/13 20:27:35;;;;;;;5.03;2.37;;;15.00;99.90;;;;;;10473957;28;20053;-60
2024/02/13 20:32:38;;;;;;;2.67;1.75;;;15.30;99.90;;;;;;10472974;28;20126;-59
2024/02/13 20:37:40;;;;;;;;;;;14.80;99.90;;;;;;10471803;28;20101;-59
2024/02/13 20:42:48;;;;;;;3.75;2.17;;;15.80;99.90;;;;;;10468933;28;19937;-60
2024/02/13 20:47:52;;;;;;;7.97;2.55;;;16.10;99.90;;;;;;10465620;28;20455;-59
2024/02/13 20:52:54;;;;;;;4.60;2.50;;;16.20;99.90;;;;;;10465164;28;20430;-60
2024/02/13 20:57:59;;;;;;;3.23;2.33;;;15.80;99.90;;;;;;10482976;28;20043;-59
2024/02/13 21:03:01;;;;;;;4.95;2.70;;;16.50;99.90;;;;;;10471155;28;20090;-58
2024/02/13 21:08:04;;;;;;;7.13;2.85;;;16.30;99.90;;;;;;10471525;28;20048;-58
2024/02/13 21:13:07;;;;;;;;;;;15.30;99.90;;;;;;10471253;28;20056;-58
2024/02/13 21:18:09;;;;;;;7.53;3.75;;;14.90;99.90;;;;;;10467494;28;20390;-60
2024/02/13 21:28:33;;;;;;;4.65;2.53;;;13.90;99.90;;;;;;10467217;28;20044;-60
2024/02/13 21:33:35;;;;;;;5.70;3.92;;;15.20;99.90;;;;;;10471875;28;20060;-60
2024/02/13 21:38:37;;;;;;;6.05;4.90;;;14.30;99.90;;;;;;10473803;28;20047;-59
2024/02/13 21:43:41;;;;;;;6.68;3.95;;;14.40;99.90;;;;;;10472760;28;20814;-60
2024/02/13 21:48:43;;;;;;;6.30;4.43;;;15.10;99.90;;;;;;10474863;28;20133;-56
2024/02/13 21:53:47;;;;;;;6.17;3.87;;;14.00;99.90;;;;;;10476720;28;20058;-59
2024/02/13 21:58:50;;;;;;;8.13;6.07;;;15.50;99.90;;;;;;10474735;28;20901;-60
2024/02/13 22:03:52;;;;;;;9.52;5.82;;;13.40;99.90;;;;;;10486020;28;20064;-59
2024/02/13 22:08:54;;;;;;;6.70;4.90;;;13.20;99.90;;;;;;10477641;28;20052;-59
2024/02/13 22:13:58;;;;;;;7.17;4.50;;;13.70;99.90;;;;;;10476665;28;20058;-60
2024/02/13 22:19:02;;;;;;;6.07;4.88;;;13.80;99.90;;;;;;10473569;28;20052;-60
2024/02/13 22:24:06;;;;;;;8.10;5.65;;;13.60;99.90;;;;;;10473088;28;20048;-61
2024/02/13 22:29:10;;;;;;;7.28;5.20;;;14.00;99.90;;;;;;10476037;28;20472;-60
2024/02/13 22:34:12;;;;;;;5.47;4.60;;;14.10;99.90;;;;;;10480749;28;20063;-59
2024/02/13 22:39:14;;;;;;;9.38;5.90;;;14.90;99.90;;;;;;10470881;28;20083;-60
2024/02/13 22:44:19;;;;;;;6.40;3.97;;;13.20;99.90;;;;;;10467800;28;20084;-60
2024/02/13 22:49:21;;;;;;;5.28;4.05;;;14.70;99.90;;;;;;10469978;28;20129;-60
2024/02/13 22:54:23;;;;;;;4.53;4.10;;;14.80;99.90;;;;;;10479517;28;20068;-60
2024/02/13 22:59:27;;;;;;;9.70;5.77;;;13.80;99.90;;;;;;10476863;28;20090;-60
2024/02/13 23:04:28;;;;;;;8.10;4.95;;;13.70;99.90;;;;;;10477104;28;20052;-60
2024/02/13 23:09:31;;;;;;;7.20;5.60;;;13.40;99.90;;;;;;10467586;28;20139;-60
2024/02/13 23:14:34;;;;;;;6.78;4.85;;;12.90;99.90;;;;;;10431243;28;20080;-60
2024/02/13 23:19:37;;;;;;;5.78;4.95;;;13.60;99.90;;;;;;10420114;28;20132;-60
2024/02/13 23:24:38;;;;;;;13.38;6.88;;;12.40;99.90;;;;;;10421685;28;20105;-59
2024/02/13 23:29:43;;;;;;;13.88;9.80;;;12.40;99.90;;;;;;10428867;28;20045;-59
2024/02/13 23:34:45;;;;;;;0.17;0.17;;;11.60;99.90;;;;;;10428439;28;20186;-60
2024/02/13 23:39:47;;;;;;;0.10;0.10;;;11.60;99.90;;;;;;10434776;28;20055;-59
2024/02/13 23:44:50;;;;;;;0.35;0.35;;;10.70;99.90;;;;;;10434895;28;20056;-60
2024/02/13 23:49:54;;;;;;;0.10;0.10;;;10.70;99.90;;;;;;10428702;28;20048;-58
2024/02/13 23:54:55;;;;;;;0.30;0.30;;;11.00;99.90;;;;;;10425705;28;20074;-60
2024/02/13 23:59:59;;;;;;;0.75;0.50;;;11.10;99.90;;;;;;10425651;28;20952;-58
